sensor_id;sensor_type;location;lat;lon;timestamp;temperature;humidity
36186;DHT22;22228;53.222;7.446;2023-12-20T00:00:31;5.10;99.90
36186;DHT22;22228;53.222;7.446;2023-12-20T00:03:52;5.10;99.90
36186;DHT22;22228;53.222;7.446;2023-12-20T00:07:13;5.20;99.90
36186;DHT22;22228;53.222;7.446;2023-12-20T00:10:35;5.20;99.90
36186;DHT22;22228;53.222;7.446;2023-12-20T00:13:55;5.30;99.90
36186;DHT22;22228;53.222;7.446;2023-12-20T00:17:16;5.30;99.90
36186;DHT22;22228;53.222;7.446;2023-12-20T00:20:36;5.30;99.90
36186;DHT22;22228;53.222;7.446;2023-12-20T00:23:57;5.20;99.90
36186;DHT22;22228;53.222;7.446;2023-12-20T00:27:19;5.10;99.90
36186;DHT22;22228;53.222;7.446;2023-12-20T00:30:39;5.10;99.90
36186;DHT22;22228;53.222;7.446;2023-12-20T00:34:00;5.00;99.90
36186;DHT22;22228;53.222;7.446;2023-12-20T00:37:20;5.00;99.90
36186;DHT22;22228;53.222;7.446;2023-12-20T00:40:41;5.00;99.90
36186;DHT22;22228;53.222;7.446;2023-12-20T00:44:02;5.00;99.90
36186;DHT22;22228;53.222;7.446;2023-12-20T00:47:23;5.00;99.90
36186;DHT22;22228;53.222;7.446;2023-12-20T00:50:44;4.90;99.90
36186;DHT22;22228;53.222;7.446;2023-12-20T00:54:04;4.90;99.90
36186;DHT22;22228;53.222;7.446;2023-12-20T00:57:24;4.90;99.90
36186;DHT22;22228;53.222;7.446;2023-12-20T01:00:47;4.80;99.90
36186;DHT22;22228;53.222;7.446;2023-12-20T01:04:07;4.80;99.90
36186;DHT22;22228;53.222;7.446;2023-12-20T01:07:27;4.90;99.90
36186;DHT22;22228;53.222;7.446;2023-12-20T01:10:48;4.80;99.90
36186;DHT22;22228;53.222;7.446;2023-12-20T01:14:08;4.80;99.90
36186;DHT22;22228;53.222;7.446;2023-12-20T04:01:00;5.60;99.90
36186;DHT22;22228;53.222;7.446;2023-12-20T04:04:21;5.60;99.90
36186;DHT22;22228;53.222;7.446;2023-12-20T04:07:42;5.50;99.90
36186;DHT22;22228;53.222;7.446;2023-12-20T04:11:03;5.60;99.90
36186;DHT22;22228;53.222;7.446;2023-12-20T04:14:23;5.70;99.90
36186;DHT22;22228;53.222;7.446;2023-12-20T04:17:45;5.70;99.90
36186;DHT22;22228;53.222;7.446;2023-12-20T04:21:06;5.80;99.90
36186;DHT22;22228;53.222;7.446;2023-12-20T04:24:27;5.70;99.90
36186;DHT22;22228;53.222;7.446;2023-12-20T04:27:47;5.80;99.90
36186;DHT22;22228;53.222;7.446;2023-12-20T04:31:08;5.80;99.90
36186;DHT22;22228;53.222;7.446;2023-12-20T04:34:30;5.80;99.90
36186;DHT22;22228;53.222;7.446;2023-12-20T04:37:50;5.80;99.90
36186;DHT22;22228;53.222;7.446;2023-12-20T04:41:11;5.70;99.90
36186;DHT22;22228;53.222;7.446;2023-12-20T04:44:35;5.70;99.90
36186;DHT22;22228;53.222;7.446;2023-12-20T04:47:56;5.70;99.90
36186;DHT22;22228;53.222;7.446;2023-12-20T04:51:21;5.80;99.90
36186;DHT22;22228;53.222;7.446;2023-12-20T04:54:42;5.80;99.90
36186;DHT22;22228;53.222;7.446;2023-12-20T04:58:03;5.80;99.90
36186;DHT22;22228;53.222;7.446;2023-12-20T05:01:23;5.90;99.90
36186;DHT22;22228;53.222;7.446;2023-12-20T05:04:44;5.90;99.90
36186;DHT22;22228;53.222;7.446;2023-12-20T05:08:07;5.90;99.90
36186;DHT22;22228;53.222;7.446;2023-12-20T05:11:27;6.00;99.90
36186;DHT22;22228;53.222;7.446;2023-12-20T05:14:51;6.00;99.90
36186;DHT22;22228;53.222;7.446;2023-12-20T05:18:35;6.00;99.90
36186;DHT22;22228;53.222;7.446;2023-12-20T05:21:59;6.00;99.90
36186;DHT22;22228;53.222;7.446;2023-12-20T05:25:21;5.90;99.90
36186;DHT22;22228;53.222;7.446;2023-12-20T05:28:42;5.90;99.90
36186;DHT22;22228;53.222;7.446;2023-12-20T05:32:03;5.90;99.90
36186;DHT22;22228;53.222;7.446;2023-12-20T05:35:23;6.00;99.90
36186;DHT22;22228;53.222;7.446;2023-12-20T05:38:44;6.00;99.90
36186;DHT22;22228;53.222;7.446;2023-12-20T05:42:06;6.20;99.90
36186;DHT22;22228;53.222;7.446;2023-12-20T05:45:27;6.20;99.90
36186;DHT22;22228;53.222;7.446;2023-12-20T05:48:49;6.30;99.90
36186;DHT22;22228;53.222;7.446;2023-12-20T05:52:11;6.30;99.90
36186;DHT22;22228;53.222;7.446;2023-12-20T05:55:31;6.40;99.90
36186;DHT22;22228;53.222;7.446;2023-12-20T05:58:53;6.40;99.90
36186;DHT22;22228;53.222;7.446;2023-12-20T06:02:14;6.40;99.90
36186;DHT22;22228;53.222;7.446;2023-12-20T06:05:35;6.40;99.90
36186;DHT22;22228;53.222;7.446;2023-12-20T06:08:56;6.50;99.90
36186;DHT22;22228;53.222;7.446;2023-12-20T06:12:17;6.40;99.90
36186;DHT22;22228;53.222;7.446;2023-12-20T06:15:39;6.50;99.90
36186;DHT22;22228;53.222;7.446;2023-12-20T06:19:01;6.50;99.90
36186;DHT22;22228;53.222;7.446;2023-12-20T06:22:22;6.50;99.90
36186;DHT22;22228;53.222;7.446;2023-12-20T06:25:42;6.50;99.90
36186;DHT22;22228;53.222;7.446;2023-12-20T06:29:03;6.50;99.90
36186;DHT22;22228;53.222;7.446;2023-12-20T06:32:28;6.50;99.90
36186;DHT22;22228;53.222;7.446;2023-12-20T06:35:49;6.60;99.90
36186;DHT22;22228;53.222;7.446;2023-12-20T06:39:09;6.60;99.90
36186;DHT22;22228;53.222;7.446;2023-12-20T06:42:32;6.60;99.90
36186;DHT22;22228;53.222;7.446;2023-12-20T06:45:56;6.60;99.90
36186;DHT22;22228;53.222;7.446;2023-12-20T06:49:18;6.60;99.90
36186;DHT22;22228;53.222;7.446;2023-12-20T06:52:39;6.60;99.90
36186;DHT22;22228;53.222;7.446;2023-12-20T06:56:05;6.60;99.90
36186;DHT22;22228;53.222;7.446;2023-12-20T06:59:28;6.60;99.90
36186;DHT22;22228;53.222;7.446;2023-12-20T07:02:49;6.50;99.90
36186;DHT22;22228;53.222;7.446;2023-12-20T07:06:10;6.50;99.90
36186;DHT22;22228;53.222;7.446;2023-12-20T07:09:31;6.60;99.90
36186;DHT22;22228;53.222;7.446;2023-12-20T07:12:52;6.60;99.90
36186;DHT22;22228;53.222;7.446;2023-12-20T07:16:14;6.60;99.90
36186;DHT22;22228;53.222;7.446;2023-12-20T07:19:35;6.60;99.90
36186;DHT22;22228;53.222;7.446;2023-12-20T07:22:57;6.60;99.90
36186;DHT22;22228;53.222;7.446;2023-12-20T07:26:27;6.60;99.90
36186;DHT22;22228;53.222;7.446;2023-12-20T07:29:48;6.60;99.90
36186;DHT22;22228;53.222;7.446;2023-12-20T07:33:09;6.60;99.90
36186;DHT22;22228;53.222;7.446;2023-12-20T07:36:32;6.60;99.90
36186;DHT22;22228;53.222;7.446;2023-12-20T07:39:54;6.70;99.90
36186;DHT22;22228;53.222;7.446;2023-12-20T07:43:14;6.70;99.90
36186;DHT22;22228;53.222;7.446;2023-12-20T07:46:35;6.70;99.90
36186;DHT22;22228;53.222;7.446;2023-12-20T07:49:55;6.70;99.90
36186;DHT22;22228;53.222;7.446;2023-12-20T07:53:16;6.80;99.90
36186;DHT22;22228;53.222;7.446;2023-12-20T07:56:38;6.80;99.90
36186;DHT22;22228;53.222;7.446;2023-12-20T07:59:59;6.80;99.90
36186;DHT22;22228;53.222;7.446;2023-12-20T08:03:20;6.80;99.90
36186;DHT22;22228;53.222;7.446;2023-12-20T08:06:40;6.80;99.90
36186;DHT22;22228;53.222;7.446;2023-12-20T08:10:01;6.80;99.90
36186;DHT22;22228;53.222;7.446;2023-12-20T08:13:23;6.80;99.90
36186;DHT22;22228;53.222;7.446;2023-12-20T08:16:49;6.80;99.90
36186;DHT22;22228;53.222;7.446;2023-12-20T08:20:10;6.80;99.90
36186;DHT22;22228;53.222;7.446;2023-12-20T08:23:31;6.90;99.90
36186;DHT22;22228;53.222;7.446;2023-12-20T08:26:51;6.90;99.90
36186;DHT22;22228;53.222;7.446;2023-12-20T08:30:13;7.00;99.90
36186;DHT22;22228;53.222;7.446;2023-12-20T08:33:35;7.00;99.90
36186;DHT22;22228;53.222;7.446;2023-12-20T08:36:56;7.00;99.90
36186;DHT22;22228;53.222;7.446;2023-12-20T08:40:17;7.00;99.90
36186;DHT22;22228;53.222;7.446;2023-12-20T08:43:38;7.10;99.90
36186;DHT22;22228;53.222;7.446;2023-12-20T08:47:01;7.20;99.90
36186;DHT22;22228;53.222;7.446;2023-12-20T08:50:22;7.20;99.90
36186;DHT22;22228;53.222;7.446;2023-12-20T08:53:42;7.30;99.90
36186;DHT22;22228;53.222;7.446;2023-12-20T08:57:04;7.20;99.90
36186;DHT22;22228;53.222;7.446;2023-12-20T09:00:25;7.10;99.90
36186;DHT22;22228;53.222;7.446;2023-12-20T09:03:48;6.10;99.90
36186;DHT22;22228;53.222;7.446;2023-12-20T09:07:21;5.40;99.90
36186;DHT22;22228;53.222;7.446;2023-12-20T09:10:41;5.00;99.90
36186;DHT22;22228;53.222;7.446;2023-12-20T09:14:01;4.90;99.90
36186;DHT22;22228;53.222;7.446;2023-12-20T09:17:22;5.00;99.90
36186;DHT22;22228;53.222;7.446;2023-12-20T09:20:44;5.10;99.90
36186;DHT22;22228;53.222;7.446;2023-12-20T09:24:05;5.30;99.90
36186;DHT22;22228;53.222;7.446;2023-12-20T09:27:26;5.40;99.90
36186;DHT22;22228;53.222;7.446;2023-12-20T09:30:46;5.40;99.90
36186;DHT22;22228;53.222;7.446;2023-12-20T09:34:07;5.50;99.90
36186;DHT22;22228;53.222;7.446;2023-12-20T09:37:29;5.50;99.90
36186;DHT22;22228;53.222;7.446;2023-12-20T09:40:49;5.60;99.90
36186;DHT22;22228;53.222;7.446;2023-12-20T09:44:14;5.60;99.90
36186;DHT22;22228;53.222;7.446;2023-12-20T09:47:36;5.60;99.90
36186;DHT22;22228;53.222;7.446;2023-12-20T09:50:57;5.50;99.90
36186;DHT22;22228;53.222;7.446;2023-12-20T09:54:20;5.50;99.90
36186;DHT22;22228;53.222;7.446;2023-12-20T09:57:40;5.50;99.90
36186;DHT22;22228;53.222;7.446;2023-12-20T10:01:01;5.60;99.90
36186;DHT22;22228;53.222;7.446;2023-12-20T10:04:22;5.70;99.90
36186;DHT22;22228;53.222;7.446;2023-12-20T10:07:48;5.70;99.90
36186;DHT22;22228;53.222;7.446;2023-12-20T10:11:10;5.80;99.90
36186;DHT22;22228;53.222;7.446;2023-12-20T10:14:31;5.80;99.90
36186;DHT22;22228;53.222;7.446;2023-12-20T10:17:52;5.70;99.90
36186;DHT22;22228;53.222;7.446;2023-12-20T10:21:14;5.80;99.90
36186;DHT22;22228;53.222;7.446;2023-12-20T10:24:34;5.80;99.90
36186;DHT22;22228;53.222;7.446;2023-12-20T10:28:10;5.80;99.90
36186;DHT22;22228;53.222;7.446;2023-12-20T10:31:32;5.80;99.90
36186;DHT22;22228;53.222;7.446;2023-12-20T10:34:55;5.70;99.90
36186;DHT22;22228;53.222;7.446;2023-12-20T10:38:16;5.70;99.90
36186;DHT22;22228;53.222;7.446;2023-12-20T10:41:37;5.80;99.90
36186;DHT22;22228;53.222;7.446;2023-12-20T10:45:02;5.80;99.90
36186;DHT22;22228;53.222;7.446;2023-12-20T10:48:24;5.90;99.90
36186;DHT22;22228;53.222;7.446;2023-12-20T10:51:48;6.00;99.90
36186;DHT22;22228;53.222;7.446;2023-12-20T10:55:11;6.00;99.90
36186;DHT22;22228;53.222;7.446;2023-12-20T10:58:32;6.10;99.90
36186;DHT22;22228;53.222;7.446;2023-12-20T11:01:57;6.20;99.90
36186;DHT22;22228;53.222;7.446;2023-12-20T11:05:28;6.30;99.90
36186;DHT22;22228;53.222;7.446;2023-12-20T11:08:57;6.40;99.90
36186;DHT22;22228;53.222;7.446;2023-12-20T11:12:35;6.40;99.90
36186;DHT22;22228;53.222;7.446;2023-12-20T11:16:00;6.50;99.90
36186;DHT22;22228;53.222;7.446;2023-12-20T11:19:22;6.50;99.90
36186;DHT22;22228;53.222;7.446;2023-12-20T11:22:53;6.50;99.90
36186;DHT22;22228;53.222;7.446;2023-12-20T11:26:15;6.50;99.90
36186;DHT22;22228;53.222;7.446;2023-12-20T11:29:36;6.50;99.90
36186;DHT22;22228;53.222;7.446;2023-12-20T11:32:56;6.60;99.90
36186;DHT22;22228;53.222;7.446;2023-12-20T11:36:19;6.70;99.90
36186;DHT22;22228;53.222;7.446;2023-12-20T11:39:40;6.70;99.90
36186;DHT22;22228;53.222;7.446;2023-12-20T11:43:00;6.80;99.90
36186;DHT22;22228;53.222;7.446;2023-12-20T11:46:21;6.80;99.90
36186;DHT22;22228;53.222;7.446;2023-12-20T11:49:47;6.90;99.90
36186;DHT22;22228;53.222;7.446;2023-12-20T11:53:13;6.90;99.90
36186;DHT22;22228;53.222;7.446;2023-12-20T11:56:33;7.00;99.90
36186;DHT22;22228;53.222;7.446;2023-12-20T11:59:54;7.10;99.90
36186;DHT22;22228;53.222;7.446;2023-12-20T12:03:15;7.10;99.90
36186;DHT22;22228;53.222;7.446;2023-12-20T12:06:36;7.20;99.90
36186;DHT22;22228;53.222;7.446;2023-12-20T12:09:58;7.20;99.90
36186;DHT22;22228;53.222;7.446;2023-12-20T12:13:19;7.30;99.90
36186;DHT22;22228;53.222;7.446;2023-12-20T12:16:39;7.30;99.90
36186;DHT22;22228;53.222;7.446;2023-12-20T12:20:05;7.30;99.90
36186;DHT22;22228;53.222;7.446;2023-12-20T12:23:26;7.40;99.90
36186;DHT22;22228;53.222;7.446;2023-12-20T12:26:51;7.40;99.90
36186;DHT22;22228;53.222;7.446;2023-12-20T12:30:12;7.40;99.90
36186;DHT22;22228;53.222;7.446;2023-12-20T12:33:33;7.30;99.90
36186;DHT22;22228;53.222;7.446;2023-12-20T12:36:55;7.40;99.90
36186;DHT22;22228;53.222;7.446;2023-12-20T12:40:17;7.30;99.90
36186;DHT22;22228;53.222;7.446;2023-12-20T12:43:41;7.30;99.90
36186;DHT22;22228;53.222;7.446;2023-12-20T12:47:02;7.20;99.90
36186;DHT22;22228;53.222;7.446;2023-12-20T12:50:23;7.20;99.90
36186;DHT22;22228;53.222;7.446;2023-12-20T12:53:43;7.20;99.90
36186;DHT22;22228;53.222;7.446;2023-12-20T12:57:04;7.10;99.90
36186;DHT22;22228;53.222;7.446;2023-12-20T13:00:26;7.10;99.90
36186;DHT22;22228;53.222;7.446;2023-12-20T13:03:49;7.00;99.90
36186;DHT22;22228;53.222;7.446;2023-12-20T13:07:10;7.00;99.90
36186;DHT22;22228;53.222;7.446;2023-12-20T13:10:32;6.90;99.90
36186;DHT22;22228;53.222;7.446;2023-12-20T13:13:53;7.00;99.90
36186;DHT22;22228;53.222;7.446;2023-12-20T13:17:14;7.00;99.90
36186;DHT22;22228;53.222;7.446;2023-12-20T13:20:35;7.00;99.90
36186;DHT22;22228;53.222;7.446;2023-12-20T13:23:58;6.90;99.90
36186;DHT22;22228;53.222;7.446;2023-12-20T13:27:19;7.00;99.90
36186;DHT22;22228;53.222;7.446;2023-12-20T13:30:40;7.00;99.90
36186;DHT22;22228;53.222;7.446;2023-12-20T13:34:01;7.00;99.90
36186;DHT22;22228;53.222;7.446;2023-12-20T13:37:25;7.10;99.90
36186;DHT22;22228;53.222;7.446;2023-12-20T13:40:46;7.20;99.90
36186;DHT22;22228;53.222;7.446;2023-12-20T13:44:06;7.20;99.90
36186;DHT22;22228;53.222;7.446;2023-12-20T13:47:27;7.30;99.90
36186;DHT22;22228;53.222;7.446;2023-12-20T13:50:50;7.20;99.90
36186;DHT22;22228;53.222;7.446;2023-12-20T13:54:11;7.30;99.90
36186;DHT22;22228;53.222;7.446;2023-12-20T13:57:32;7.30;99.90
36186;DHT22;22228;53.222;7.446;2023-12-20T14:00:52;7.20;99.90
36186;DHT22;22228;53.222;7.446;2023-12-20T14:04:13;7.10;99.90
36186;DHT22;22228;53.222;7.446;2023-12-20T14:07:35;7.10;99.90
36186;DHT22;22228;53.222;7.446;2023-12-20T14:10:56;7.10;99.90
36186;DHT22;22228;53.222;7.446;2023-12-20T14:14:16;7.10;99.90
36186;DHT22;22228;53.222;7.446;2023-12-20T14:17:37;7.00;99.90
36186;DHT22;22228;53.222;7.446;2023-12-20T14:20:58;6.90;99.90
36186;DHT22;22228;53.222;7.446;2023-12-20T14:24:20;6.70;99.90
36186;DHT22;22228;53.222;7.446;2023-12-20T14:27:41;6.70;99.90
36186;DHT22;22228;53.222;7.446;2023-12-20T14:31:03;6.70;99.90
36186;DHT22;22228;53.222;7.446;2023-12-20T14:34:24;6.70;99.90
36186;DHT22;22228;53.222;7.446;2023-12-20T14:37:45;6.70;99.90
36186;DHT22;22228;53.222;7.446;2023-12-20T14:41:07;6.70;99.90
36186;DHT22;22228;53.222;7.446;2023-12-20T14:44:27;6.70;99.90
36186;DHT22;22228;53.222;7.446;2023-12-20T14:47:48;6.70;99.90
36186;DHT22;22228;53.222;7.446;2023-12-20T14:51:08;6.70;99.90
36186;DHT22;22228;53.222;7.446;2023-12-20T14:54:30;6.60;99.90
36186;DHT22;22228;53.222;7.446;2023-12-20T14:57:51;6.60;99.90
36186;DHT22;22228;53.222;7.446;2023-12-20T15:01:12;6.60;99.90
36186;DHT22;22228;53.222;7.446;2023-12-20T15:04:32;6.60;99.90
36186;DHT22;22228;53.222;7.446;2023-12-20T15:07:53;6.60;99.90
36186;DHT22;22228;53.222;7.446;2023-12-20T15:11:14;6.50;99.90
36186;DHT22;22228;53.222;7.446;2023-12-20T15:14:36;6.50;99.90
36186;DHT22;22228;53.222;7.446;2023-12-20T15:17:57;6.40;99.90
36186;DHT22;22228;53.222;7.446;2023-12-20T15:21:17;6.30;99.90
36186;DHT22;22228;53.222;7.446;2023-12-20T15:24:39;6.20;99.90
36186;DHT22;22228;53.222;7.446;2023-12-20T15:28:01;6.10;99.90
36186;DHT22;22228;53.222;7.446;2023-12-20T15:31:23;6.00;99.90
36186;DHT22;22228;53.222;7.446;2023-12-20T15:34:45;6.00;99.90
36186;DHT22;22228;53.222;7.446;2023-12-20T15:38:06;6.00;99.90
36186;DHT22;22228;53.222;7.446;2023-12-20T15:41:29;5.90;99.90
36186;DHT22;22228;53.222;7.446;2023-12-20T15:44:49;5.90;99.90
36186;DHT22;22228;53.222;7.446;2023-12-20T15:48:11;5.80;99.90
36186;DHT22;22228;53.222;7.446;2023-12-20T15:51:37;5.80;99.90
36186;DHT22;22228;53.222;7.446;2023-12-20T15:54:58;5.80;99.90
36186;DHT22;22228;53.222;7.446;2023-12-20T15:58:20;5.80;99.90
36186;DHT22;22228;53.222;7.446;2023-12-20T16:01:40;5.80;99.90
36186;DHT22;22228;53.222;7.446;2023-12-20T16:05:03;5.90;99.90
36186;DHT22;22228;53.222;7.446;2023-12-20T16:08:23;5.90;99.90
36186;DHT22;22228;53.222;7.446;2023-12-20T16:11:44;5.90;99.90
36186;DHT22;22228;53.222;7.446;2023-12-20T16:15:05;5.90;99.90
36186;DHT22;22228;53.222;7.446;2023-12-20T16:18:28;5.90;99.90
36186;DHT22;22228;53.222;7.446;2023-12-20T16:21:50;5.90;99.90
36186;DHT22;22228;53.222;7.446;2023-12-20T16:25:11;5.90;99.90
36186;DHT22;22228;53.222;7.446;2023-12-20T16:28:32;5.90;99.90
36186;DHT22;22228;53.222;7.446;2023-12-20T16:31:52;5.90;99.90
36186;DHT22;22228;53.222;7.446;2023-12-20T16:35:13;5.90;99.90
36186;DHT22;22228;53.222;7.446;2023-12-20T16:38:35;5.90;99.90
36186;DHT22;22228;53.222;7.446;2023-12-20T16:41:55;5.90;99.90
36186;DHT22;22228;53.222;7.446;2023-12-20T16:45:16;5.90;99.90
36186;DHT22;22228;53.222;7.446;2023-12-20T16:48:37;5.90;99.90
36186;DHT22;22228;53.222;7.446;2023-12-20T16:51:57;5.90;99.90
36186;DHT22;22228;53.222;7.446;2023-12-20T16:55:20;5.90;99.90
36186;DHT22;22228;53.222;7.446;2023-12-20T16:58:41;5.90;99.90
36186;DHT22;22228;53.222;7.446;2023-12-20T17:02:10;6.00;99.90
36186;DHT22;22228;53.222;7.446;2023-12-20T17:05:38;6.00;99.90
36186;DHT22;22228;53.222;7.446;2023-12-20T17:09:01;6.00;99.90
36186;DHT22;22228;53.222;7.446;2023-12-20T17:12:24;6.00;99.90
36186;DHT22;22228;53.222;7.446;2023-12-20T17:15:45;6.00;99.90
36186;DHT22;22228;53.222;7.446;2023-12-20T17:19:08;5.90;99.90
36186;DHT22;22228;53.222;7.446;2023-12-20T17:22:32;6.00;99.90
36186;DHT22;22228;53.222;7.446;2023-12-20T17:25:53;6.00;99.90
36186;DHT22;22228;53.222;7.446;2023-12-20T17:29:16;6.00;99.90
36186;DHT22;22228;53.222;7.446;2023-12-20T17:32:40;6.10;99.90
36186;DHT22;22228;53.222;7.446;2023-12-20T17:36:08;6.10;99.90
36186;DHT22;22228;53.222;7.446;2023-12-20T17:39:31;6.10;99.90
36186;DHT22;22228;53.222;7.446;2023-12-20T17:42:52;6.10;99.90
36186;DHT22;22228;53.222;7.446;2023-12-20T17:46:17;6.10;99.90
36186;DHT22;22228;53.222;7.446;2023-12-20T17:49:38;6.10;99.90
36186;DHT22;22228;53.222;7.446;2023-12-20T17:53:02;6.20;99.90
36186;DHT22;22228;53.222;7.446;2023-12-20T17:56:27;6.20;99.90
36186;DHT22;22228;53.222;7.446;2023-12-20T17:59:49;6.20;99.90
36186;DHT22;22228;53.222;7.446;2023-12-20T18:03:11;6.20;99.90
36186;DHT22;22228;53.222;7.446;2023-12-20T18:06:32;6.30;99.90
36186;DHT22;22228;53.222;7.446;2023-12-20T18:09:53;6.30;99.90
36186;DHT22;22228;53.222;7.446;2023-12-20T18:13:14;6.30;99.90
36186;DHT22;22228;53.222;7.446;2023-12-20T18:16:34;6.30;99.90
36186;DHT22;22228;53.222;7.446;2023-12-20T18:19:57;6.40;99.90
36186;DHT22;22228;53.222;7.446;2023-12-20T18:23:19;6.40;99.90
36186;DHT22;22228;53.222;7.446;2023-12-20T18:26:39;6.40;99.90
36186;DHT22;22228;53.222;7.446;2023-12-20T18:30:06;6.50;99.90
36186;DHT22;22228;53.222;7.446;2023-12-20T18:33:27;6.50;99.90
36186;DHT22;22228;53.222;7.446;2023-12-20T18:36:53;6.60;99.90
36186;DHT22;22228;53.222;7.446;2023-12-20T18:40:15;6.70;99.90
36186;DHT22;22228;53.222;7.446;2023-12-20T18:43:35;6.70;99.90
36186;DHT22;22228;53.222;7.446;2023-12-20T18:46:56;6.80;99.90
36186;DHT22;22228;53.222;7.446;2023-12-20T18:50:17;6.80;99.90
36186;DHT22;22228;53.222;7.446;2023-12-20T18:53:39;6.90;99.90
36186;DHT22;22228;53.222;7.446;2023-12-20T18:57:01;6.90;99.90
36186;DHT22;22228;53.222;7.446;2023-12-20T19:00:21;7.00;99.90
36186;DHT22;22228;53.222;7.446;2023-12-20T19:03:43;7.10;99.90
36186;DHT22;22228;53.222;7.446;2023-12-20T19:07:06;7.10;99.90
36186;DHT22;22228;53.222;7.446;2023-12-20T19:10:28;7.20;99.90
36186;DHT22;22228;53.222;7.446;2023-12-20T19:13:49;7.20;99.90
36186;DHT22;22228;53.222;7.446;2023-12-20T19:17:11;7.30;99.90
36186;DHT22;22228;53.222;7.446;2023-12-20T19:20:32;7.30;99.90
36186;DHT22;22228;53.222;7.446;2023-12-20T19:23:52;7.30;99.90
36186;DHT22;22228;53.222;7.446;2023-12-20T19:27:15;7.40;99.90
36186;DHT22;22228;53.222;7.446;2023-12-20T19:30:36;7.50;99.90
36186;DHT22;22228;53.222;7.446;2023-12-20T19:33:57;7.50;99.90
36186;DHT22;22228;53.222;7.446;2023-12-20T19:37:18;7.50;99.90
36186;DHT22;22228;53.222;7.446;2023-12-20T19:40:39;7.60;99.90
36186;DHT22;22228;53.222;7.446;2023-12-20T19:44:00;7.60;99.90
36186;DHT22;22228;53.222;7.446;2023-12-20T19:47:21;7.60;99.90
36186;DHT22;22228;53.222;7.446;2023-12-20T19:50:41;7.60;99.90
36186;DHT22;22228;53.222;7.446;2023-12-20T19:54:02;7.70;99.90
36186;DHT22;22228;53.222;7.446;2023-12-20T19:57:23;7.70;99.90
36186;DHT22;22228;53.222;7.446;2023-12-20T20:00:45;7.70;99.90
36186;DHT22;22228;53.222;7.446;2023-12-20T20:04:05;7.70;99.90
36186;DHT22;22228;53.222;7.446;2023-12-20T20:07:26;7.80;99.90
36186;DHT22;22228;53.222;7.446;2023-12-20T20:10:46;7.80;99.90
36186;DHT22;22228;53.222;7.446;2023-12-20T20:14:09;7.80;99.90
36186;DHT22;22228;53.222;7.446;2023-12-20T20:17:32;7.90;99.90
36186;DHT22;22228;53.222;7.446;2023-12-20T20:20:53;7.90;99.90
36186;DHT22;22228;53.222;7.446;2023-12-20T20:24:13;7.90;99.90
36186;DHT22;22228;53.222;7.446;2023-12-20T20:27:34;8.00;99.90
36186;DHT22;22228;53.222;7.446;2023-12-20T20:30:55;8.00;99.90
36186;DHT22;22228;53.222;7.446;2023-12-20T20:34:20;8.00;99.90
36186;DHT22;22228;53.222;7.446;2023-12-20T20:37:47;8.10;99.90
36186;DHT22;22228;53.222;7.446;2023-12-20T20:41:07;8.10;99.90
36186;DHT22;22228;53.222;7.446;2023-12-20T20:44:28;8.10;99.90
36186;DHT22;22228;53.222;7.446;2023-12-20T20:47:48;8.10;99.90
36186;DHT22;22228;53.222;7.446;2023-12-20T20:51:11;8.10;99.90
36186;DHT22;22228;53.222;7.446;2023-12-20T20:54:31;8.10;99.90
36186;DHT22;22228;53.222;7.446;2023-12-20T20:57:52;8.20;99.90
36186;DHT22;22228;53.222;7.446;2023-12-20T21:01:13;8.20;99.90
36186;DHT22;22228;53.222;7.446;2023-12-20T21:04:33;8.20;99.90
36186;DHT22;22228;53.222;7.446;2023-12-20T21:07:56;8.30;99.90
36186;DHT22;22228;53.222;7.446;2023-12-20T21:11:16;8.20;99.90
36186;DHT22;22228;53.222;7.446;2023-12-20T21:14:40;8.30;99.90
36186;DHT22;22228;53.222;7.446;2023-12-20T21:18:01;8.40;99.90
36186;DHT22;22228;53.222;7.446;2023-12-20T21:21:21;8.40;99.90
36186;DHT22;22228;53.222;7.446;2023-12-20T21:24:43;8.40;99.90
36186;DHT22;22228;53.222;7.446;2023-12-20T21:28:04;8.50;99.90
36186;DHT22;22228;53.222;7.446;2023-12-20T21:31:25;8.50;99.90
36186;DHT22;22228;53.222;7.446;2023-12-20T21:34:46;8.50;99.90
36186;DHT22;22228;53.222;7.446;2023-12-20T21:38:06;8.50;99.90
36186;DHT22;22228;53.222;7.446;2023-12-20T21:41:28;8.50;99.90
36186;DHT22;22228;53.222;7.446;2023-12-20T21:44:49;8.60;99.90
36186;DHT22;22228;53.222;7.446;2023-12-20T21:48:11;8.60;99.90
36186;DHT22;22228;53.222;7.446;2023-12-20T21:51:31;8.60;99.90
36186;DHT22;22228;53.222;7.446;2023-12-20T21:54:52;8.60;99.90
36186;DHT22;22228;53.222;7.446;2023-12-20T21:58:14;8.60;99.90
36186;DHT22;22228;53.222;7.446;2023-12-20T22:01:35;8.70;99.90
36186;DHT22;22228;53.222;7.446;2023-12-20T22:04:56;8.70;99.90
36186;DHT22;22228;53.222;7.446;2023-12-20T22:08:18;8.70;99.90
36186;DHT22;22228;53.222;7.446;2023-12-20T22:11:38;8.70;99.90
36186;DHT22;22228;53.222;7.446;2023-12-20T22:15:01;8.70;99.90
36186;DHT22;22228;53.222;7.446;2023-12-20T22:18:22;8.70;99.90
36186;DHT22;22228;53.222;7.446;2023-12-20T22:21:42;8.70;99.90
36186;DHT22;22228;53.222;7.446;2023-12-20T22:25:04;8.70;99.90
36186;DHT22;22228;53.222;7.446;2023-12-20T22:28:25;8.70;99.90
36186;DHT22;22228;53.222;7.446;2023-12-20T22:31:47;8.70;99.90
36186;DHT22;22228;53.222;7.446;2023-12-20T22:35:08;8.70;99.90
36186;DHT22;22228;53.222;7.446;2023-12-20T22:38:29;8.70;99.90
36186;DHT22;22228;53.222;7.446;2023-12-20T22:41:52;8.70;99.90
36186;DHT22;22228;53.222;7.446;2023-12-20T22:45:13;8.70;99.90
36186;DHT22;22228;53.222;7.446;2023-12-20T22:48:35;8.70;99.90
36186;DHT22;22228;53.222;7.446;2023-12-20T22:51:56;8.70;99.90
36186;DHT22;22228;53.222;7.446;2023-12-20T22:55:17;8.70;99.90
36186;DHT22;22228;53.222;7.446;2023-12-20T22:58:38;8.80;99.90
36186;DHT22;22228;53.222;7.446;2023-12-20T23:02:04;8.80;99.90
36186;DHT22;22228;53.222;7.446;2023-12-20T23:05:26;8.80;99.90
36186;DHT22;22228;53.222;7.446;2023-12-20T23:08:46;8.80;99.90
36186;DHT22;22228;53.222;7.446;2023-12-20T23:12:07;8.80;99.90
36186;DHT22;22228;53.222;7.446;2023-12-20T23:15:28;8.80;99.90
36186;DHT22;22228;53.222;7.446;2023-12-20T23:18:48;8.80;99.90
36186;DHT22;22228;53.222;7.446;2023-12-20T23:22:10;8.80;99.90
36186;DHT22;22228;53.222;7.446;2023-12-20T23:25:30;8.80;99.90
36186;DHT22;22228;53.222;7.446;2023-12-20T23:28:52;8.80;99.90
36186;DHT22;22228;53.222;7.446;2023-12-20T23:32:14;8.80;99.90
36186;DHT22;22228;53.222;7.446;2023-12-20T23:35:35;8.80;99.90
36186;DHT22;22228;53.222;7.446;2023-12-20T23:38:57;8.80;99.90
36186;DHT22;22228;53.222;7.446;2023-12-20T23:42:18;8.80;99.90
36186;DHT22;22228;53.222;7.446;2023-12-20T23:45:39;8.80;99.90
36186;DHT22;22228;53.222;7.446;2023-12-20T23:48:59;8.80;99.90
36186;DHT22;22228;53.222;7.446;2023-12-20T23:52:26;8.80;99.90
36186;DHT22;22228;53.222;7.446;2023-12-20T23:55:47;8.80;99.90
36186;DHT22;22228;53.222;7.446;2023-12-20T23:59:08;8.80;99.90
